Main page
METAR-TAF:

METAR-TAF

Airports :

Maastricht Aachen Airport

Maastricht Aachen, Netherlands

latitude: 50-55N, longitude: 005-47E, elevation: 114 m

Current weather observation

The report was made 26 minutes ago, at 10:55 UTC
Wind 4 kt from the Northeast, varying between Northwest and East
Temperature 8°C
Humidity 42%
Pressure 1022 hPa
Visibility 10 km or more

METAR: EHBK 011055Z AUTO 05004KT 320V090 9999 NCD 08/M04 Q1022 NOSIG

Time: 13:21 (11:21 UTC)

Forecast

The report was made 6 hours and 0 minutes ago, at 05:21 UTC
Forecast valid from 01 at 06 UTC to 02 at 12 UTC
Wind 5 kt from the North
Visibility 10 km or more
no clouds below 1500 m and no cumulonimbus
Probability 30% :
Temporary
from 02 at 02 UTC to 02 at 07 UTC
Visibility: 3000 m
mist, Shallow fog

TAF: EHBK 010521Z 0106/0212 01005KT CAVOK PROB30 TEMPO 0202/0207 3000 BR MIFG

Weather observations and forecasts of more than 4000 airports (METAR and TAF reports).

The available stations are represented by yellow and red dots on the map.

Hover mouse over dot to see the name of the station.

Then click to see weather observations and forecasts.

To change the map : click on the green buttons with a black cross to zoom in, on the green button with a dash to zoom out, or on the green arrows for adjacent maps.


METAR-TAF: